Terminal Aerodrome Forecast
Issued by NWS

Home | Current Version | Previous Version | Text Only | Print | Product List | Glossary On
Versions: 1 2 3 4 5 6 7 8 9 10 11 12 13 14 15 16 17 18 19
299
FTUS43 KMQT 051728
TAFCMX
TAF
KCMX 051728Z 0518/0618 28008KT P6SM BKN035
      TEMPO 0518/0519 BKN025
     FM052000 24008KT P6SM OVC060
     FM060400 23011G16KT P6SM VCSH OVC030
     FM060700 26013G18KT 6SM -SHSN OVC020
     FM061200 30011KT 1 1/2SM -SHSN OVC015=

USA.gov is the U.S. government's official web portal to all federal, state and local government web resources and services.